Mesa, Colorado
Current Conditions -  °F | °C
As of 8:53 AM on Saturday 25 Oct 2014 (Local Time) from KGJT Reporting Station
Clear Clear  
Wind Chill: 43°   Ceiling: Unl
Heat Index: 49°   Visibility: 10mi
Dew Point: 32°   Wind: 15mph
Humidity: 52%   Direction: 130°SE
Pressure: 30.27"   Gusts: NA
Location:  39.17°N, 108.14°W
Report Text: KGJT 251453Z 13013KT 10SM CLR 09/00 A3027 RMK AO2 SLP222 T00940000 53005
Loading
Personal Weather Stations






























Interactive Weather Map
Tropical Storm Tracking
New forecast layout! Learn more

10-Day Weather Forecast

Advertisements
Track Severe Weather on mobile